Time;durP1;ratioP1;P1;durP2;ratioP2;P2;SDS_P1;SDS_P2;PMS_P1;PMS_P2;Temp;Humidity;BMP_temperature;BMP_pressure;BME280_temperature;BME280_humidity;BME280_pressure;Samples;Min_cycle;Max_cycle;Signal;HPM_P1;HPM_P2
2021/03/29 00:00:25;;;;;;;23.90;8.85;;;9.20;99.90;;;;;;5050754;28;20136;-54
2021/03/29 00:02:51;;;;;;;21.50;8.63;;;9.10;99.90;;;;;;5051737;28;20451;-52
2021/03/29 00:05:20;;;;;;;16.70;7.53;;;9.10;99.90;;;;;;5051599;28;20060;-54
2021/03/29 00:07:49;;;;;;;18.98;8.35;;;9.00;99.90;;;;;;5049945;28;20033;-53
2021/03/29 00:10:16;;;;;;;23.25;7.95;;;9.00;99.90;;;;;;5049772;28;20052;-55
2021/03/29 00:12:45;;;;;;;25.08;8.73;;;8.90;99.90;;;;;;5051941;28;20029;-56
2021/03/29 00:15:18;;;;;;;26.52;9.18;;;8.90;99.90;;;;;;5052025;28;20029;-51
2021/03/29 00:17:44;;;;;;;21.17;8.55;;;8.90;99.90;;;;;;5051831;28;20033;-55
2021/03/29 00:20:13;;;;;;;20.48;8.40;;;8.80;99.90;;;;;;5051480;28;20040;-51
2021/03/29 00:22:40;;;;;;;24.55;8.45;;;8.80;99.90;;;;;;5051477;28;20036;-54
2021/03/29 00:25:07;;;;;;;21.55;8.50;;;8.70;99.90;;;;;;5051044;28;20029;-54
2021/03/29 00:27:33;;;;;;;25.40;7.85;;;8.80;99.90;;;;;;5045482;28;20082;-53
2021/03/29 00:30:00;;;;;;;25.73;8.40;;;8.80;99.90;;;;;;5050988;28;20437;-51
2021/03/29 00:32:26;;;;;;;16.15;7.63;;;8.80;99.90;;;;;;5051430;28;20251;-54
2021/03/29 00:34:52;;;;;;;22.42;8.02;;;8.80;99.90;;;;;;5051059;28;20041;-55
2021/03/29 00:37:18;;;;;;;26.92;8.73;;;8.80;99.90;;;;;;5051318;28;20021;-54
2021/03/29 00:39:44;;;;;;;18.90;7.75;;;8.80;99.90;;;;;;5050292;28;20487;-53
2021/03/29 00:42:10;;;;;;;24.48;8.40;;;8.80;99.90;;;;;;5051541;28;20074;-54
2021/03/29 00:44:36;;;;;;;22.90;9.90;;;8.90;99.90;;;;;;5049659;28;20030;-50
2021/03/29 00:47:02;;;;;;;24.10;8.57;;;8.80;99.90;;;;;;5050997;28;20036;-51
2021/03/29 00:49:29;;;;;;;21.67;8.25;;;8.90;99.90;;;;;;5051047;28;20029;-51
2021/03/29 00:51:55;;;;;;;22.17;9.27;;;8.80;99.90;;;;;;5051183;28;20029;-51
2021/03/29 00:54:22;;;;;;;17.95;8.15;;;8.80;99.90;;;;;;5048445;28;20035;-55
2021/03/29 00:56:48;;;;;;;25.23;9.60;;;8.70;99.90;;;;;;5049040;28;20116;-54
2021/03/29 00:59:14;;;;;;;26.40;9.30;;;8.70;99.90;;;;;;5050427;28;20128;-54
2021/03/29 01:01:48;;;;;;;24.88;9.00;;;8.60;99.90;;;;;;5049487;28;20554;-56
2021/03/29 01:04:15;;;;;;;25.45;9.50;;;8.60;99.90;;;;;;5050656;28;20112;-53
2021/03/29 01:06:47;;;;;;;25.50;8.75;;;8.50;99.90;;;;;;5054216;28;20041;-51
2021/03/29 01:09:32;;;;;;;25.38;8.05;;;8.50;99.90;;;;;;5050244;28;20399;-50
2021/03/29 01:12:03;;;;;;;14.55;7.22;;;8.40;99.90;;;;;;5050571;28;20108;-54
2021/03/29 01:14:36;;;;;;;22.75;8.80;;;8.40;99.90;;;;;;5050091;28;20033;-53
2021/03/29 01:17:13;;;;;;;22.98;9.43;;;8.30;99.90;;;;;;5043703;28;20263;-55
2021/03/29 01:19:45;;;;;;;22.20;8.65;;;8.30;99.90;;;;;;5044579;28;20067;-54
2021/03/29 01:22:11;;;;;;;25.67;8.40;;;8.30;99.90;;;;;;5050515;28;20032;-52
2021/03/29 01:24:49;;;;;;;17.58;8.40;;;8.30;99.90;;;;;;5049156;28;20491;-54
2021/03/29 01:27:18;;;;;;;21.20;8.43;;;8.30;99.90;;;;;;5050622;28;20024;-51
2021/03/29 01:29:44;;;;;;;22.77;8.25;;;8.20;99.90;;;;;;5050079;28;20465;-50
2021/03/29 01:32:12;;;;;;;25.52;8.43;;;8.20;99.90;;;;;;5050535;28;20081;-52
2021/03/29 01:34:39;;;;;;;24.02;9.38;;;8.30;99.90;;;;;;5048095;28;20436;-58
2021/03/29 01:37:06;;;;;;;28.25;8.50;;;8.20;99.90;;;;;;5045142;28;20478;-53
2021/03/29 01:39:33;;;;;;;19.42;7.70;;;8.20;99.90;;;;;;5050647;28;20069;-54
2021/03/29 01:41:59;;;;;;;19.98;7.28;;;8.20;99.90;;;;;;5048196;28;20029;-52
2021/03/29 01:44:26;;;;;;;22.75;8.50;;;8.10;99.90;;;;;;5051299;28;20033;-51
2021/03/29 01:46:52;;;;;;;21.35;8.43;;;8.00;99.90;;;;;;5048327;28;20491;-52
2021/03/29 01:49:19;;;;;;;16.17;7.88;;;8.00;99.90;;;;;;5043067;28;20028;-52
2021/03/29 01:51:46;;;;;;;26.10;8.32;;;7.90;99.90;;;;;;5050336;28;20024;-54
2021/03/29 01:54:13;;;;;;;22.58;8.32;;;7.80;99.90;;;;;;5045413;28;20025;-54
2021/03/29 01:56:39;;;;;;;20.15;8.63;;;7.80;99.90;;;;;;5044103;28;20035;-54
2021/03/29 01:59:04;;;;;;;30.92;9.25;;;7.70;99.90;;;;;;5050560;28;20040;-50
2021/03/29 02:01:30;;;;;;;32.97;9.07;;;7.70;99.90;;;;;;5047456;28;20109;-54
2021/03/29 02:03:56;;;;;;;22.20;7.35;;;7.80;99.90;;;;;;5044328;28;20025;-52
2021/03/29 02:06:22;;;;;;;23.65;8.60;;;7.80;99.90;;;;;;5042897;28;20079;-51
2021/03/29 02:08:48;;;;;;;28.25;8.68;;;7.80;99.90;;;;;;5050710;28;20476;-51
2021/03/29 02:11:16;;;;;;;23.67;8.57;;;7.80;99.90;;;;;;5049336;28;20129;-51
2021/03/29 02:13:44;;;;;;;26.23;7.22;;;7.70;99.90;;;;;;5045656;28;20021;-52
2021/03/29 02:16:13;;;;;;;20.95;7.45;;;7.80;99.90;;;;;;5048610;28;20036;-50
2021/03/29 02:18:41;;;;;;;27.48;8.20;;;7.70;99.90;;;;;;5050718;28;20063;-50
2021/03/29 02:21:10;;;;;;;19.48;6.95;;;7.70;99.90;;;;;;5051381;28;20098;-50
2021/03/29 02:23:36;;;;;;;26.10;9.02;;;7.50;99.90;;;;;;5051729;28;20116;-52
2021/03/29 02:26:05;;;;;;;16.63;6.50;;;7.40;99.90;;;;;;5048092;28;20434;-51
2021/03/29 02:28:32;;;;;;;24.23;8.85;;;7.20;99.90;;;;;;5046791;28;20339;-50
2021/03/29 02:31:00;;;;;;;22.42;7.57;;;7.20;99.90;;;;;;5053591;28;20035;-55
2021/03/29 02:33:26;;;;;;;22.25;7.63;;;7.20;99.90;;;;;;5053670;28;20075;-55
2021/03/29 02:35:53;;;;;;;25.05;8.30;;;7.10;99.90;;;;;;5052852;28;20029;-55
2021/03/29 02:38:19;;;;;;;24.90;8.07;;;7.10;99.90;;;;;;5052535;28;20028;-53
2021/03/29 02:40:48;;;;;;;24.25;9.15;;;7.00;99.90;;;;;;5053683;28;20033;-56
2021/03/29 02:43:14;;;;;;;21.13;7.55;;;7.00;99.90;;;;;;5048004;28;20021;-57
2021/03/29 02:46:07;;;;;;;28.98;8.57;;;6.90;99.90;;;;;;5040385;28;20021;-52
2021/03/29 02:48:38;;;;;;;30.20;9.70;;;6.80;99.90;;;;;;5053265;28;20017;-51
2021/03/29 02:51:08;;;;;;;24.58;10.45;;;6.60;99.90;;;;;;5053635;28;20021;-51
2021/03/29 02:53:35;;;;;;;22.77;8.90;;;6.50;99.90;;;;;;5052869;28;20014;-53
2021/03/29 02:56:07;;;;;;;23.80;7.50;;;6.50;99.90;;;;;;5046310;28;20025;-50
2021/03/29 02:58:34;;;;;;;18.52;7.93;;;6.50;99.90;;;;;;5047485;28;20029;-50
2021/03/29 03:01:00;;;;;;;24.73;8.93;;;6.50;99.90;;;;;;5047481;28;20055;-50
2021/03/29 03:03:27;;;;;;;24.27;9.70;;;6.60;99.90;;;;;;5051773;28;20060;-55
2021/03/29 03:05:53;;;;;;;32.40;9.10;;;6.50;99.90;;;;;;5051326;28;20025;-56
2021/03/29 03:08:20;;;;;;;23.25;7.78;;;6.50;99.90;;;;;;5052372;28;20087;-51
2021/03/29 03:10:45;;;;;;;24.23;8.57;;;6.50;99.90;;;;;;5042700;28;20026;-51
2021/03/29 03:13:12;;;;;;;25.27;9.15;;;6.50;99.90;;;;;;5046564;28;20104;-51
2021/03/29 03:15:38;;;;;;;21.90;8.48;;;6.50;99.90;;;;;;5050329;28;20481;-52
2021/03/29 03:18:09;;;;;;;24.23;8.70;;;6.40;99.90;;;;;;5053051;28;20024;-50
2021/03/29 03:20:37;;;;;;;19.58;8.52;;;6.30;99.90;;;;;;5052027;28;20025;-56
2021/03/29 03:23:04;;;;;;;26.67;8.68;;;6.30;99.90;;;;;;5048076;28;20112;-51
2021/03/29 03:25:37;;;;;;;28.42;8.43;;;6.20;99.90;;;;;;5053193;28;20025;-52
2021/03/29 03:28:05;;;;;;;24.58;9.55;;;6.20;99.90;;;;;;5050359;28;20025;-50
2021/03/29 03:30:33;;;;;;;24.35;9.10;;;6.10;99.90;;;;;;5052473;28;20021;-50
2021/03/29 03:33:00;;;;;;;25.88;9.32;;;6.00;99.90;;;;;;5052917;28;20060;-53
2021/03/29 03:35:27;;;;;;;25.60;8.93;;;5.90;99.90;;;;;;5049281;28;20045;-53
2021/03/29 03:37:58;;;;;;;19.35;7.57;;;5.90;99.90;;;;;;5046689;28;20086;-55
2021/03/29 03:40:24;;;;;;;27.45;8.20;;;6.00;99.90;;;;;;5051441;28;20025;-53
2021/03/29 03:42:53;;;;;;;25.20;8.15;;;6.00;99.90;;;;;;5052921;28;20044;-50
2021/03/29 03:45:22;;;;;;;37.53;8.02;;;6.00;99.90;;;;;;5050650;28;20025;-53
2021/03/29 03:47:48;;;;;;;21.77;7.95;;;6.00;99.90;;;;;;5048963;28;20017;-51
2021/03/29 03:50:14;;;;;;;23.55;7.25;;;5.90;99.90;;;;;;5047199;28;20159;-52
2021/03/29 03:52:41;;;;;;;18.00;6.47;;;5.80;99.90;;;;;;5049349;28;20092;-51
2021/03/29 03:55:08;;;;;;;23.38;7.72;;;5.80;99.90;;;;;;5052298;28;20044;-52
2021/03/29 03:57:39;;;;;;;28.90;10.63;;;5.80;99.90;;;;;;5046094;28;20031;-54
2021/03/29 04:00:11;;;;;;;20.77;7.85;;;5.80;99.90;;;;;;5050698;28;20517;-52
2021/03/29 04:02:36;;;;;;;28.90;7.60;;;5.80;99.90;;;;;;5052275;28;20395;-52
2021/03/29 04:05:10;;;;;;;25.23;7.05;;;5.90;99.90;;;;;;5049438;28;20040;-52
2021/03/29 04:07:35;;;;;;;22.35;8.02;;;5.90;99.90;;;;;;5049914;28;20057;-51
2021/03/29 04:10:10;;;;;;;24.33;6.57;;;6.00;99.90;;;;;;5048124;28;20092;-54
2021/03/29 04:12:35;;;;;;;23.25;7.03;;;6.00;99.90;;;;;;5051852;28;20122;-51
2021/03/29 04:15:01;;;;;;;32.95;8.05;;;6.00;99.90;;;;;;5050105;28;20444;-55
2021/03/29 04:17:26;;;;;;;30.00;8.32;;;6.00;99.90;;;;;;5051314;28;20457;-51
2021/03/29 04:19:52;;;;;;;29.15;6.68;;;6.10;99.90;;;;;;5052149;28;20056;-52
2021/03/29 04:22:17;;;;;;;30.60;9.13;;;6.10;99.90;;;;;;5050990;28;20032;-55
2021/03/29 04:24:43;;;;;;;27.42;8.43;;;6.10;99.90;;;;;;5050594;28;20031;-52
2021/03/29 04:27:09;;;;;;;31.05;7.45;;;6.10;99.90;;;;;;5051348;28;20104;-50
2021/03/29 04:29:34;;;;;;;16.70;6.22;;;6.00;99.90;;;;;;5051949;28;20083;-55
2021/03/29 04:32:00;;;;;;;25.05;6.57;;;5.90;99.90;;;;;;5051293;28;20074;-55
2021/03/29 04:34:25;;;;;;;23.55;7.53;;;5.80;99.90;;;;;;5051758;28;20045;-51
2021/03/29 04:36:52;;;;;;;20.92;6.75;;;5.60;99.90;;;;;;5045879;28;20029;-52
2021/03/29 04:39:18;;;;;;;20.50;6.07;;;5.50;99.90;;;;;;5050524;28;20406;-50
2021/03/29 04:41:43;;;;;;;18.33;6.82;;;5.40;99.90;;;;;;5051293;28;20025;-53
2021/03/29 04:44:09;;;;;;;21.65;7.30;;;5.40;99.90;;;;;;5045012;28;20498;-54
2021/03/29 04:46:36;;;;;;;17.50;7.22;;;5.30;99.90;;;;;;5047339;28;20403;-53
2021/03/29 04:49:02;;;;;;;20.67;7.82;;;5.20;99.90;;;;;;5049303;28;20386;-53
2021/03/29 04:51:28;;;;;;;17.60;6.60;;;5.30;99.90;;;;;;5046337;28;20096;-54
2021/03/29 04:53:53;;;;;;;33.85;9.07;;;5.30;99.90;;;;;;5047328;28;20100;-51
2021/03/29 04:56:19;;;;;;;23.80;8.07;;;5.30;99.90;;;;;;5046446;28;20399;-50
2021/03/29 04:58:44;;;;;;;31.48;7.32;;;5.40;99.90;;;;;;5047545;28;20035;-50
2021/03/29 05:01:10;;;;;;;30.70;8.35;;;5.50;99.90;;;;;;5050392;28;20025;-51
2021/03/29 05:03:35;;;;;;;30.02;7.85;;;5.50;99.90;;;;;;5047883;28;20067;-50
2021/03/29 05:06:01;;;;;;;35.42;8.90;;;5.60;99.90;;;;;;5055617;28;20020;-51
2021/03/29 05:08:27;;;;;;;23.73;7.40;;;5.60;99.90;;;;;;5048836;28;20106;-53
2021/03/29 05:10:52;;;;;;;22.00;7.72;;;5.60;99.90;;;;;;5050560;28;20032;-54
2021/03/29 05:13:18;;;;;;;18.95;6.93;;;5.50;99.90;;;;;;5044116;28;20070;-51
2021/03/29 05:15:43;;;;;;;22.52;7.90;;;5.40;99.90;;;;;;5046688;28;20029;-56
2021/03/29 05:18:09;;;;;;;32.63;7.68;;;5.30;99.90;;;;;;5046180;28;20028;-52
2021/03/29 05:20:34;;;;;;;26.80;8.35;;;5.20;99.90;;;;;;5047072;28;20029;-53
2021/03/29 05:23:00;;;;;;;25.77;7.78;;;5.30;99.90;;;;;;5043506;28;20056;-52
2021/03/29 05:25:25;;;;;;;23.80;7.40;;;5.30;99.90;;;;;;5045195;28;20029;-51
2021/03/29 05:27:51;;;;;;;23.75;7.68;;;5.40;99.90;;;;;;5048103;28;20137;-49
2021/03/29 05:30:17;;;;;;;22.13;7.60;;;5.40;99.90;;;;;;5044711;28;20060;-52
2021/03/29 05:32:42;;;;;;;27.52;7.97;;;5.40;99.90;;;;;;5046856;28;20033;-51
2021/03/29 05:35:08;;;;;;;16.67;6.22;;;5.40;99.90;;;;;;5048414;28;20052;-50
2021/03/29 05:37:34;;;;;;;18.92;8.23;;;5.40;99.90;;;;;;5046037;28;20136;-49
2021/03/29 05:40:00;;;;;;;23.27;6.93;;;5.50;99.90;;;;;;5047170;28;20461;-50
2021/03/29 05:42:29;;;;;;;22.92;8.20;;;5.60;99.90;;;;;;5046674;28;20071;-51
2021/03/29 05:45:02;;;;;;;32.92;8.80;;;5.60;99.90;;;;;;5047996;28;20036;-52
2021/03/29 05:47:30;;;;;;;28.23;8.05;;;5.70;99.90;;;;;;5047517;28;20432;-53
2021/03/29 05:49:59;;;;;;;23.65;10.07;;;5.70;99.90;;;;;;5043704;28;20487;-52
2021/03/29 05:52:25;;;;;;;30.92;7.88;;;5.70;99.90;;;;;;5048092;28;20506;-52
2021/03/29 05:54:50;;;;;;;23.02;7.90;;;5.80;99.90;;;;;;5048819;28;20025;-50
2021/03/29 05:57:17;;;;;;;26.25;7.68;;;5.80;99.90;;;;;;5048321;28;20039;-53
2021/03/29 05:59:43;;;;;;;23.50;8.05;;;5.90;99.90;;;;;;5050517;28;20032;-50
2021/03/29 06:02:23;;;;;;;22.45;8.68;;;6.00;99.90;;;;;;5052410;28;20037;-53
2021/03/29 06:04:49;;;;;;;23.83;8.40;;;6.00;99.90;;;;;;5053169;28;20457;-53
2021/03/29 06:07:19;;;;;;;22.10;7.85;;;6.20;99.90;;;;;;5053348;28;20104;-53
2021/03/29 06:09:47;;;;;;;27.20;7.88;;;6.30;99.90;;;;;;5046619;28;20047;-52
2021/03/29 06:12:15;;;;;;;23.00;8.45;;;6.40;99.90;;;;;;5053569;28;20041;-51
2021/03/29 06:14:41;;;;;;;27.17;7.90;;;6.40;99.90;;;;;;5054593;28;20078;-50
2021/03/29 06:17:08;;;;;;;21.20;8.38;;;6.50;99.90;;;;;;5053059;28;20033;-51
2021/03/29 06:19:46;;;;;;;26.58;9.00;;;6.60;99.90;;;;;;5048016;28;20025;-50
2021/03/29 06:22:13;;;;;;;24.17;8.82;;;6.70;99.90;;;;;;5053821;28;20233;-50
2021/03/29 06:25:02;;;;;;;22.55;8.52;;;6.90;99.90;;;;;;5052101;28;20056;-50
2021/03/29 06:27:55;;;;;;;20.92;9.52;;;7.00;99.90;;;;;;5049660;28;20086;-51
2021/03/29 06:30:37;;;;;;;22.17;7.57;;;7.10;99.90;;;;;;5049943;28;20025;-49
2021/03/29 06:33:08;;;;;;;23.92;8.27;;;7.20;99.90;;;;;;5050237;28;20067;-49
2021/03/29 06:35:35;;;;;;;29.92;8.95;;;7.30;99.90;;;;;;5050866;28;20503;-49
2021/03/29 06:38:11;;;;;;;25.50;9.05;;;7.40;99.90;;;;;;5046419;28;20040;-50
2021/03/29 06:40:43;;;;;;;24.85;8.80;;;7.50;99.90;;;;;;5051466;28;20032;-50
2021/03/29 06:43:35;;;;;;;22.08;8.30;;;7.70;99.90;;;;;;5050255;28;20035;-50
2021/03/29 06:46:04;;;;;;;25.02;8.55;;;7.80;99.90;;;;;;5051140;28;20120;-50
2021/03/29 06:48:37;;;;;;;25.63;9.38;;;7.90;99.90;;;;;;5050761;28;20483;-48
2021/03/29 06:51:03;;;;;;;21.02;7.82;;;8.00;99.90;;;;;;5050381;28;20036;-49
2021/03/29 06:53:28;;;;;;;26.10;7.88;;;8.10;99.90;;;;;;5050358;28;20040;-47
2021/03/29 06:55:57;;;;;;;25.05;8.27;;;8.20;99.90;;;;;;5052416;28;20036;-50
2021/03/29 06:58:26;;;;;;;30.33;9.45;;;8.30;99.90;;;;;;5053181;28;20051;-49
2021/03/29 07:00:57;;;;;;;39.30;9.27;;;8.40;99.90;;;;;;5047021;28;20056;-49
2021/03/29 07:03:23;;;;;;;23.77;7.82;;;8.50;99.90;;;;;;5046381;28;20123;-49
2021/03/29 07:05:50;;;;;;;20.85;7.82;;;8.60;99.90;;;;;;5045346;28;20548;-50
2021/03/29 07:08:16;;;;;;;26.80;8.27;;;8.60;99.90;;;;;;5051535;28;20025;-50
2021/03/29 07:10:42;;;;;;;19.17;8.00;;;8.80;99.90;;;;;;5049788;28;20451;-50
2021/03/29 07:13:09;;;;;;;20.45;7.38;;;8.90;99.90;;;;;;5048369;28;20071;-52
2021/03/29 07:15:36;;;;;;;17.70;6.80;;;9.00;99.90;;;;;;5047556;28;20028;-52
2021/03/29 07:18:03;;;;;;;21.63;7.43;;;9.10;99.90;;;;;;5050030;28;20119;-49
2021/03/29 07:20:32;;;;;;;29.83;7.60;;;9.20;99.90;;;;;;5049709;28;20052;-49
2021/03/29 07:22:57;;;;;;;21.50;8.75;;;9.40;99.90;;;;;;5052335;28;20029;-52
2021/03/29 07:25:30;;;;;;;24.35;6.90;;;9.50;99.90;;;;;;5050814;28;20100;-50
2021/03/29 07:27:59;;;;;;;18.38;6.45;;;9.70;99.90;;;;;;5047056;28;20410;-50
2021/03/29 07:30:49;;;;;;;20.70;6.18;;;9.80;99.90;;;;;;5050316;28;20069;-52
2021/03/29 07:33:19;;;;;;;27.75;5.97;;;10.00;99.90;;;;;;5052177;28;20031;-49
2021/03/29 07:35:54;;;;;;;25.15;5.95;;;10.10;99.90;;;;;;5047959;28;20040;-48
2021/03/29 07:38:25;;;;;;;15.30;6.60;;;10.20;99.90;;;;;;5048588;28;20074;-49
2021/03/29 07:40:56;;;;;;;22.25;6.03;;;10.40;99.90;;;;;;5049504;28;20029;-49
2021/03/29 07:43:24;;;;;;;22.30;6.10;;;10.50;99.90;;;;;;5051275;28;20112;-50
2021/03/29 07:46:05;;;;;;;17.67;6.85;;;10.60;99.90;;;;;;5050539;28;20040;-49
2021/03/29 07:48:35;;;;;;;23.55;8.50;;;10.70;99.90;;;;;;5046134;28;20521;-51
2021/03/29 07:51:03;;;;;;;13.43;5.22;;;10.80;99.90;;;;;;5043916;28;20457;-48
2021/03/29 07:53:40;;;;;;;22.13;7.00;;;11.00;99.90;;;;;;5051045;28;20043;-49
2021/03/29 07:56:06;;;;;;;18.30;6.00;;;11.10;99.90;;;;;;5050997;28;20032;-51
2021/03/29 07:58:44;;;;;;;19.42;5.93;;;11.20;99.90;;;;;;5052248;28;20057;-48
2021/03/29 08:01:10;;;;;;;15.95;4.80;;;11.30;99.90;;;;;;5050849;28;20041;-48
2021/03/29 08:03:38;;;;;;;16.25;5.53;;;11.30;99.90;;;;;;5051509;28;20044;-51
2021/03/29 08:06:05;;;;;;;17.27;5.30;;;11.40;99.90;;;;;;5050442;28;20188;-48
2021/03/29 08:08:33;;;;;;;14.52;4.43;;;11.50;99.90;;;;;;5047344;28;20024;-53
2021/03/29 08:11:09;;;;;;;18.23;6.43;;;11.60;99.90;;;;;;5048695;28;20036;-52
2021/03/29 08:13:36;;;;;;;13.48;4.97;;;11.70;99.90;;;;;;5050133;28;20112;-50
2021/03/29 08:16:06;;;;;;;19.27;4.22;;;11.80;99.90;;;;;;5052043;28;20036;-50
2021/03/29 08:19:14;;;;;;;14.85;4.45;;;12.00;99.90;;;;;;5051536;28;20414;-53
2021/03/29 08:21:52;;;;;;;12.40;4.03;;;12.20;99.90;;;;;;5046051;28;20060;-49
2021/03/29 08:24:23;;;;;;;14.65;4.45;;;12.50;99.90;;;;;;5047578;28;20036;-49
2021/03/29 08:26:50;;;;;;;14.57;3.97;;;12.60;99.90;;;;;;5051833;28;20029;-50
2021/03/29 08:29:20;;;;;;;12.50;4.00;;;12.70;99.90;;;;;;5050714;28;20491;-48
2021/03/29 08:31:59;;;;;;;17.30;4.10;;;12.80;99.90;;;;;;5051563;28;20306;-49
2021/03/29 08:34:26;;;;;;;17.52;4.07;;;13.00;99.90;;;;;;5051623;28;20441;-50
2021/03/29 08:36:53;;;;;;;14.32;3.60;;;13.00;99.90;;;;;;5051376;28;20037;-52
2021/03/29 08:39:20;;;;;;;13.23;3.85;;;13.10;99.90;;;;;;5047794;28;20039;-49
2021/03/29 08:41:50;;;;;;;12.45;3.70;;;13.10;99.90;;;;;;5050831;28;20103;-49
2021/03/29 08:44:16;;;;;;;11.98;3.92;;;13.20;99.90;;;;;;5049835;28;20052;-49
2021/03/29 08:46:44;;;;;;;11.18;3.88;;;13.40;99.90;;;;;;5051714;28;20064;-52
2021/03/29 08:49:10;;;;;;;18.05;3.75;;;13.70;99.90;;;;;;5050319;28;20029;-50
2021/03/29 08:51:36;;;;;;;10.15;4.07;;;13.90;99.90;;;;;;5046878;28;20035;-53
2021/03/29 08:54:12;;;;;;;17.25;5.18;;;14.10;99.90;;;;;;5046367;28;20016;-52
2021/03/29 08:56:45;;;;;;;11.25;4.53;;;14.10;99.90;;;;;;5047087;28;20032;-49
2021/03/29 08:59:11;;;;;;;16.08;5.13;;;14.30;99.90;;;;;;5049259;28;20033;-50
2021/03/29 09:01:41;;;;;;;11.85;4.60;;;14.40;99.90;;;;;;5049184;28;20021;-50
2021/03/29 09:04:10;;;;;;;9.73;4.10;;;14.60;99.90;;;;;;5050988;28;20055;-53
2021/03/29 09:06:36;;;;;;;12.02;4.10;;;14.70;99.90;;;;;;5049519;28;20027;-50
2021/03/29 09:09:16;;;;;;;20.23;5.35;;;14.90;99.90;;;;;;5046321;28;20017;-50
2021/03/29 09:11:44;;;;;;;18.63;4.88;;;15.00;99.90;;;;;;5046810;28;20483;-48
2021/03/29 09:14:10;;;;;;;7.65;2.53;;;15.20;99.90;;;;;;5049973;28;20071;-50
2021/03/29 09:16:37;;;;;;;9.13;1.88;;;15.50;99.90;;;;;;5047437;28;20060;-51
2021/03/29 09:19:17;;;;;;;6.70;1.80;;;15.60;99.90;;;;;;5050321;28;20025;-50
2021/03/29 09:22:04;;;;;;;10.95;2.90;;;15.90;99.90;;;;;;5045142;28;20060;-53
2021/03/29 09:24:31;;;;;;;8.27;2.05;;;16.00;99.90;;;;;;5048946;28;20371;-50
2021/03/29 09:27:07;;;;;;;8.73;1.73;;;16.40;99.90;;;;;;5049008;28;20406;-52
2021/03/29 09:29:39;;;;;;;4.32;1.20;;;16.50;99.90;;;;;;5047135;28;20040;-51
2021/03/29 09:32:17;;;;;;;9.43;1.50;;;16.60;99.90;;;;;;5045181;28;20025;-49
2021/03/29 09:34:48;;;;;;;4.72;1.65;;;16.70;99.90;;;;;;5046773;28;20041;-49
2021/03/29 09:37:24;;;;;;;8.75;1.83;;;16.80;99.90;;;;;;5049507;28;20029;-53
2021/03/29 09:40:07;;;;;;;5.40;1.85;;;16.90;99.90;;;;;;5044846;28;20103;-50
2021/03/29 09:42:43;;;;;;;5.38;1.70;;;17.10;99.90;;;;;;5047523;28;20040;-51
2021/03/29 09:45:14;;;;;;;8.70;1.80;;;17.20;99.90;;;;;;5048642;28;20129;-52
2021/03/29 09:47:40;;;;;;;6.05;1.50;;;17.30;99.90;;;;;;5047163;28;20028;-48
2021/03/29 09:50:09;;;;;;;5.07;2.17;;;17.40;98.90;;;;;;5044132;28;20027;-50
2021/03/29 09:52:40;;;;;;;5.95;1.33;;;17.50;97.60;;;;;;5041124;28;20036;-48
2021/03/29 09:55:08;;;;;;;4.15;1.10;;;17.70;96.80;;;;;;5041128;28;20107;-50
2021/03/29 09:57:43;;;;;;;3.35;1.15;;;17.90;94.30;;;;;;5041472;28;20036;-53
2021/03/29 10:00:17;;;;;;;3.05;0.85;;;18.00;91.90;;;;;;5041388;28;20029;-49
2021/03/29 10:02:43;;;;;;;4.55;1.52;;;18.10;91.80;;;;;;5040742;28;20037;-51
2021/03/29 10:05:12;;;;;;;6.28;1.42;;;18.30;92.90;;;;;;5044979;28;20032;-49
2021/03/29 10:07:54;;;;;;;7.07;1.70;;;18.60;92.20;;;;;;5042837;28;20025;-49
2021/03/29 10:10:29;;;;;;;7.97;1.60;;;18.70;91.20;;;;;;5046370;28;20021;-49
2021/03/29 10:13:09;;;;;;;8.02;1.23;;;19.00;91.50;;;;;;5046904;28;20471;-49
2021/03/29 10:15:36;;;;;;;11.15;1.42;;;18.90;87.60;;;;;;5041571;28;20033;-49
2021/03/29 10:18:10;;;;;;;11.70;1.35;;;19.20;85.50;;;;;;5047271;28;20113;-49
2021/03/29 10:20:38;;;;;;;5.28;1.52;;;19.00;81.40;;;;;;5048287;28;20036;-48
2021/03/29 10:23:20;;;;;;;4.65;1.27;;;19.10;82.60;;;;;;5046580;28;20032;-48
2021/03/29 10:26:32;;;;;;;6.32;1.27;;;19.40;80.30;;;;;;5044467;28;20025;-48
2021/03/29 10:29:04;;;;;;;4.05;1.10;;;19.50;77.00;;;;;;5044617;28;20515;-51
2021/03/29 10:31:32;;;;;;;3.50;1.10;;;19.70;73.60;;;;;;5045856;28;20029;-46
2021/03/29 10:33:58;;;;;;;2.25;1.13;;;19.80;70.40;;;;;;5044978;28;20104;-52
2021/03/29 10:36:26;;;;;;;4.15;1.15;;;19.90;71.70;;;;;;5049513;28;20100;-49
2021/03/29 10:38:52;;;;;;;5.18;1.10;;;19.90;70.10;;;;;;5047753;28;20036;-49
2021/03/29 10:41:20;;;;;;;2.78;1.00;;;19.90;68.50;;;;;;5044306;28;20013;-50
2021/03/29 10:43:46;;;;;;;3.92;1.35;;;20.00;69.80;;;;;;5044627;28;20100;-48
2021/03/29 10:46:12;;;;;;;10.32;1.75;;;19.90;67.40;;;;;;5048711;28;20052;-48
2021/03/29 10:48:38;;;;;;;5.53;1.48;;;20.10;64.30;;;;;;5050418;28;20017;-48
2021/03/29 10:51:05;;;;;;;6.55;1.13;;;20.30;65.00;;;;;;5050315;28;20079;-49
2021/03/29 10:53:32;;;;;;;6.28;1.27;;;20.40;64.20;;;;;;5048994;28;20025;-51
2021/03/29 10:55:57;;;;;;;5.20;1.38;;;20.70;65.60;;;;;;5040346;28;20025;-52
2021/03/29 10:58:23;;;;;;;6.70;1.58;;;20.80;60.60;;;;;;5046916;28;20030;-49
2021/03/29 11:00:49;;;;;;;11.15;1.55;;;20.60;60.20;;;;;;5043664;28;20032;-48
2021/03/29 11:03:14;;;;;;;9.15;1.30;;;20.60;58.60;;;;;;5047099;28;20035;-50
2021/03/29 11:05:40;;;;;;;5.40;1.00;;;20.70;58.70;;;;;;5047005;28;20060;-53
2021/03/29 11:08:05;;;;;;;3.05;1.20;;;20.50;59.10;;;;;;5046858;28;20036;-49
2021/03/29 11:10:33;;;;;;;3.55;1.02;;;20.70;59.20;;;;;;5044504;28;20047;-49
2021/03/29 11:12:59;;;;;;;3.90;1.00;;;20.90;57.70;;;;;;5047350;28;20403;-48
2021/03/29 11:15:24;;;;;;;4.70;1.02;;;20.90;58.20;;;;;;5044293;28;20025;-52
2021/03/29 11:17:50;;;;;;;5.20;1.08;;;20.70;56.50;;;;;;5047786;28;20506;-52
2021/03/29 11:20:16;;;;;;;5.57;1.15;;;20.60;55.70;;;;;;5045853;28;20167;-49
2021/03/29 11:22:43;;;;;;;3.47;1.67;;;20.70;55.30;;;;;;5046534;28;20406;-49
2021/03/29 11:25:09;;;;;;;5.00;1.38;;;20.90;56.60;;;;;;5045127;28;20400;-50
2021/03/29 11:27:35;;;;;;;2.95;1.30;;;21.20;57.40;;;;;;5073870;22;20415;-57
2021/03/29 11:30:02;;;;;;;6.63;1.20;;;21.30;55.50;;;;;;5045676;28;20025;-56
2021/03/29 11:32:27;;;;;;;3.97;1.20;;;21.30;54.30;;;;;;5043123;28;20020;-57
2021/03/29 11:34:53;;;;;;;5.03;1.73;;;21.30;55.40;;;;;;5047514;28;20033;-57
2021/03/29 11:37:18;;;;;;;3.63;1.42;;;21.60;55.60;;;;;;5033809;28;20026;-56
2021/03/29 11:39:44;;;;;;;7.10;1.67;;;21.50;53.20;;;;;;5033803;28;20411;-59
2021/03/29 11:42:09;;;;;;;5.45;1.13;;;21.60;54.70;;;;;;5035120;28;20057;-54
2021/03/29 11:44:35;;;;;;;3.30;1.25;;;21.60;53.80;;;;;;5029579;28;20033;-57
2021/03/29 11:47:00;;;;;;;4.80;1.52;;;21.60;53.00;;;;;;5024732;28;20557;-56
2021/03/29 11:49:26;;;;;;;4.70;1.42;;;21.60;53.60;;;;;;5030295;28;20467;-58
2021/03/29 11:51:52;;;;;;;8.13;1.58;;;21.70;52.80;;;;;;5030254;28;20025;-58
2021/03/29 11:54:17;;;;;;;2.63;1.30;;;21.50;52.60;;;;;;5029687;28;20021;-56
2021/03/29 11:56:43;;;;;;;5.15;1.38;;;21.70;52.70;;;;;;5030682;28;20321;-56
2021/03/29 11:59:08;;;;;;;4.45;1.73;;;22.00;53.60;;;;;;5032019;28;20243;-57
2021/03/29 12:01:47;;;;;;;7.43;1.70;;;22.30;51.90;;;;;;5026734;28;20025;-57
2021/03/29 12:07:04;;;;;;;3.63;1.10;;;22.90;52.70;;;;;;5032311;28;20535;-57
2021/03/29 12:09:31;;;;;;;2.75;1.23;;;22.80;48.70;;;;;;5024911;28;20037;-57
2021/03/29 12:12:07;;;;;;;6.32;1.90;;;22.80;49.10;;;;;;5027073;28;20045;-57
2021/03/29 12:14:38;;;;;;;3.97;1.40;;;22.50;48.60;;;;;;5028907;28;20107;-55
2021/03/29 12:17:06;;;;;;;8.15;1.83;;;22.50;50.00;;;;;;5027801;28;20117;-57
2021/03/29 12:19:32;;;;;;;2.47;1.35;;;22.70;48.90;;;;;;5027666;28;20327;-55
2021/03/29 12:22:01;;;;;;;4.93;1.70;;;22.90;49.80;;;;;;5028616;28;20033;-55
2021/03/29 12:24:30;;;;;;;6.53;1.67;;;23.00;49.40;;;;;;5027317;28;20021;-57
2021/03/29 12:27:03;;;;;;;4.63;1.63;;;23.10;50.00;;;;;;5029607;28;20044;-58
2021/03/29 12:29:38;;;;;;;5.88;1.40;;;23.40;50.10;;;;;;5025333;28;20087;-55
2021/03/29 12:32:13;;;;;;;4.50;1.65;;;23.60;50.10;;;;;;5029873;28;20479;-57
2021/03/29 12:34:54;;;;;;;4.60;1.60;;;23.60;50.30;;;;;;5030325;28;20029;-57
2021/03/29 12:37:22;;;;;;;6.15;2.03;;;23.50;48.90;;;;;;5034280;28;20052;-57
2021/03/29 12:40:24;;;;;;;7.07;2.38;;;23.70;48.90;;;;;;5025998;28;20419;-57
2021/03/29 12:43:04;;;;;;;10.68;2.22;;;23.60;49.40;;;;;;5030481;28;20466;-57
2021/03/29 12:45:31;;;;;;;7.40;2.00;;;23.70;49.70;;;;;;5025460;28;20057;-57
2021/03/29 12:47:59;;;;;;;7.57;1.58;;;23.40;47.50;;;;;;5025987;28;20811;-57
2021/03/29 12:50:25;;;;;;;3.53;1.60;;;23.20;47.50;;;;;;5028795;28;20176;-57
2021/03/29 12:52:51;;;;;;;5.85;1.60;;;22.80;47.60;;;;;;5029060;28;20561;-58
2021/03/29 12:55:19;;;;;;;9.60;1.85;;;23.10;48.50;;;;;;5029959;28;20482;-57
2021/03/29 12:57:46;;;;;;;4.03;1.83;;;23.30;49.00;;;;;;5029668;28;20029;-58